createdAt,value
2024-02-24T00:00:50.769Z,99468.81
2024-02-24T00:03:19.384Z,99471.16
2024-02-24T00:05:46.937Z,99464.75
2024-02-24T00:08:13.805Z,99461.63
2024-02-24T00:10:40.747Z,99455.19
2024-02-24T00:13:09.207Z,99463.78
2024-02-24T00:15:35.999Z,99455.03
2024-02-24T00:18:04.766Z,99455.47
2024-02-24T00:20:31.615Z,99458.59
2024-02-24T00:22:58.682Z,99450.97
2024-02-24T00:25:25.340Z,99451.94
2024-02-24T00:27:52.736Z,99456.41
2024-02-24T00:30:19.523Z,99459.91
2024-02-24T00:32:46.331Z,99475.09
2024-02-24T00:35:13.374Z,99477.22
2024-02-24T00:37:40.108Z,99473.06
2024-02-24T00:40:07.844Z,99472.38
2024-02-24T00:42:34.767Z,99463.25
2024-02-24T00:45:01.713Z,99466.06
2024-02-24T00:47:28.608Z,99458.56
2024-02-24T00:49:55.306Z,99466.00
2024-02-24T00:52:21.983Z,99472.72
2024-02-24T00:54:49.282Z,99470.53
2024-02-24T00:57:16.150Z,99469.47
2024-02-24T00:59:43.494Z,99465.63
2024-02-24T01:02:10.968Z,99463.16
2024-02-24T01:04:38.510Z,99467.13
2024-02-24T01:07:05.549Z,99466.03
2024-02-24T01:09:34.591Z,99466.81
2024-02-24T01:12:03.904Z,99465.84
2024-02-24T01:14:31.437Z,99469.78
2024-02-24T01:16:58.633Z,99465.25
2024-02-24T01:19:25.936Z,99475.47
2024-02-24T01:21:55.214Z,99469.94
2024-02-24T01:24:23.136Z,99469.69
2024-02-24T01:26:50.253Z,99481.72
2024-02-24T01:29:17.179Z,99478.53
2024-02-24T01:31:44.234Z,99483.28
2024-02-24T01:34:11.117Z,99479.41
2024-02-24T01:36:38.023Z,99479.41
2024-02-24T01:39:05.090Z,99476.53
2024-02-24T01:41:35.137Z,99479.09
2024-02-24T01:44:02.296Z,99476.75
2024-02-24T01:46:33.471Z,99477.19
2024-02-24T01:49:01.200Z,99482.78
2024-02-24T01:51:33.564Z,99484.72
2024-02-24T01:54:01.704Z,99492.94
2024-02-24T01:56:28.967Z,99484.63
2024-02-24T01:58:59.298Z,99495.66
2024-02-24T02:01:26.506Z,99492.47
2024-02-24T02:03:56.330Z,99501.50
2024-02-24T02:06:26.646Z,99492.19
2024-02-24T02:08:53.926Z,99487.66
2024-02-24T02:11:21.200Z,99485.31
2024-02-24T02:13:53.827Z,99488.75
2024-02-24T02:16:21.656Z,99491.25
2024-02-24T02:18:48.701Z,99494.03
2024-02-24T02:21:20.973Z,99496.00
2024-02-24T02:23:48.766Z,99497.13
2024-02-24T02:26:24.038Z,99497.13
2024-02-24T02:28:51.074Z,99497.25
2024-02-24T02:31:18.817Z,99502.41
2024-02-24T02:33:46.713Z,99504.19
2024-02-24T02:36:13.922Z,99499.75
2024-02-24T02:38:41.024Z,99500.59
2024-02-24T02:41:08.293Z,99511.16
2024-02-24T02:43:35.720Z,99515.06
2024-02-24T02:46:07.501Z,99521.16
2024-02-24T02:48:36.390Z,99517.84
2024-02-24T02:51:03.841Z,99514.50
2024-02-24T02:53:31.146Z,99511.19
2024-02-24T02:55:58.353Z,99515.06
2024-02-24T02:58:25.590Z,99520.50
2024-02-24T03:00:53.036Z,99527.88
2024-02-24T03:03:20.190Z,99528.84
2024-02-24T03:05:47.490Z,99535.09
2024-02-24T03:08:14.973Z,99536.34
2024-02-24T03:10:42.458Z,99532.47
2024-02-24T03:13:09.440Z,99538.16
2024-02-24T03:15:37.356Z,99542.63
2024-02-24T03:18:04.641Z,99543.72
2024-02-24T03:20:34.571Z,99543.72
2024-02-24T03:23:02.765Z,99542.75
2024-02-24T03:25:29.951Z,99543.59
2024-02-24T03:28:25.380Z,99550.38
2024-02-24T03:31:11.931Z,99548.03
2024-02-24T03:33:39.926Z,99549.16
2024-02-24T03:36:22.536Z,99547.91
2024-02-24T03:38:52.699Z,99550.41
2024-02-24T03:45:38.377Z,99554.44
2024-02-24T03:48:35.726Z,99555.94
2024-02-24T03:52:56.157Z,99553.75
2024-02-24T04:07:39.112Z,99562.78
2024-02-24T04:10:37.043Z,99563.34
2024-02-24T04:44:06.056Z,99583.94
2024-02-24T04:46:41.050Z,99586.69
2024-02-24T04:49:43.109Z,99586.97
2024-02-24T04:52:15.835Z,99599.56
2024-02-24T04:55:09.795Z,99591.41
2024-02-24T05:08:14.946Z,99601.91
2024-02-24T05:10:41.764Z,99610.91
2024-02-24T05:13:08.787Z,99617.13
2024-02-24T05:15:35.347Z,99606.59
2024-02-24T05:18:02.858Z,99606.84
2024-02-24T05:20:30.315Z,99606.69
2024-02-24T05:22:56.927Z,99611.16
2024-02-24T05:25:23.783Z,99601.44
2024-02-24T05:27:50.489Z,99608.38
2024-02-24T05:30:17.188Z,99608.66
2024-02-24T05:32:44.239Z,99609.34
2024-02-24T05:35:10.983Z,99606.59
2024-02-24T05:37:37.561Z,99615.06
2024-02-24T05:40:04.510Z,99611.44
2024-02-24T05:42:31.442Z,99610.75
2024-02-24T05:44:58.785Z,99606.69
2024-02-24T05:47:26.442Z,99609.50
2024-02-24T05:49:53.090Z,99609.50
2024-02-24T05:52:20.900Z,99614.59
2024-02-24T05:54:49.269Z,99619.19
2024-02-24T05:57:16.604Z,99625.13
2024-02-24T05:59:43.274Z,99634.72
2024-02-24T06:02:10.112Z,99636.66
2024-02-24T06:04:37.685Z,99645.66
2024-02-24T06:07:07.994Z,99640.50
2024-02-24T06:09:34.848Z,99644.81
2024-02-24T06:12:02.385Z,99650.47
2024-02-24T06:14:29.202Z,99652.84
2024-02-24T06:16:55.789Z,99659.78
2024-02-24T06:19:22.720Z,99667.56
2024-02-24T06:21:50.504Z,99676.44
2024-02-24T06:24:17.137Z,99677.13
2024-02-24T06:26:44.985Z,99670.06
2024-02-24T06:29:13.244Z,99670.06
2024-02-24T06:31:40.279Z,99677.97
2024-02-24T06:34:08.838Z,99677.13
2024-02-24T06:36:35.786Z,99683.63
2024-02-24T06:39:03.030Z,99680.53
2024-02-24T06:41:29.944Z,99674.69
2024-02-24T06:43:57.801Z,99676.88
2024-02-24T06:46:25.473Z,99692.69
2024-02-24T06:48:52.334Z,99688.13
2024-02-24T06:51:19.002Z,99700.22
2024-02-24T06:53:45.815Z,99692.16
2024-02-24T06:56:12.470Z,99698.97
2024-02-24T06:58:39.225Z,99690.13
2024-02-24T07:01:06.659Z,99700.50
2024-02-24T07:03:34.686Z,99702.88
2024-02-24T07:06:03.119Z,99705.97
2024-02-24T07:08:30.092Z,99700.56
2024-02-24T07:10:56.883Z,99710.16
2024-02-24T07:13:23.769Z,99715.28
2024-02-24T07:15:50.379Z,99707.09
2024-02-24T07:18:18.558Z,99715.84
2024-02-24T07:20:45.983Z,99720.75
2024-02-24T07:23:12.896Z,99723.81
2024-02-24T07:25:40.196Z,99726.19
2024-02-24T07:28:07.452Z,99723.16
2024-02-24T07:30:34.262Z,99730.53
2024-02-24T07:33:01.954Z,99728.91
2024-02-24T07:35:30.151Z,99729.94
2024-02-24T07:37:56.822Z,99739.66
2024-02-24T07:40:23.443Z,99734.69
2024-02-24T07:42:51.221Z,99743.75
2024-02-24T07:45:18.145Z,99754.72
2024-02-24T07:47:47.557Z,99754.19
2024-02-24T07:50:14.796Z,99760.44
2024-02-24T07:52:43.230Z,99756.16
2024-02-24T07:55:10.937Z,99755.91
2024-02-24T07:57:37.827Z,99764.56
2024-02-24T08:00:06.586Z,99762.50
2024-02-24T08:02:34.067Z,99757.22
2024-02-24T08:05:01.466Z,99763.22
2024-02-24T08:07:50.336Z,99774.47
2024-02-24T08:10:17.539Z,99770.00
2024-02-24T08:12:44.577Z,99776.97
2024-02-24T08:15:12.020Z,99770.56
2024-02-24T08:17:40.612Z,99771.91
2024-02-24T08:20:09.221Z,99768.97
2024-02-24T08:22:36.377Z,99770.59
2024-02-24T08:25:03.286Z,99769.72
2024-02-24T08:27:30.004Z,99774.16
2024-02-24T08:29:56.972Z,99769.97
2024-02-24T08:32:24.171Z,99771.88
2024-02-24T08:34:51.393Z,99767.38
2024-02-24T08:37:18.038Z,99770.97
2024-02-24T08:39:48.147Z,99772.56
2024-02-24T08:42:14.734Z,99780.47
2024-02-24T08:44:41.418Z,99783.91
2024-02-24T08:47:08.244Z,99780.50
2024-02-24T08:49:35.517Z,99791.16
2024-02-24T08:52:02.642Z,99791.13
2024-02-24T08:54:29.626Z,99788.03
2024-02-24T08:56:56.421Z,99796.22
2024-02-24T08:59:23.813Z,99790.44
2024-02-24T09:01:55.312Z,99791.13
2024-02-24T09:04:22.111Z,99798.34
2024-02-24T09:06:51.755Z,99801.34
2024-02-24T09:09:18.995Z,99802.72
2024-02-24T09:11:47.689Z,99800.16
2024-02-24T09:14:14.854Z,99807.63
2024-02-24T09:16:41.481Z,99808.84
2024-02-24T09:19:08.179Z,99811.72
2024-02-24T09:21:34.861Z,99810.66
2024-02-24T09:24:01.644Z,99817.28
2024-02-24T09:26:28.563Z,99820.66
2024-02-24T09:28:56.263Z,99828.69
2024-02-24T09:31:23.837Z,99828.25
2024-02-24T09:33:56.804Z,99829.59
2024-02-24T09:36:27.127Z,99836.88
2024-02-24T09:38:54.776Z,99828.06
2024-02-24T09:41:21.499Z,99832.09
2024-02-24T09:43:48.387Z,99834.13
2024-02-24T09:46:18.664Z,99836.16
2024-02-24T09:48:48.193Z,99840.00
2024-02-24T09:51:15.259Z,99836.88
2024-02-24T09:53:42.052Z,99845.69
2024-02-24T09:56:11.525Z,99843.56
2024-02-24T09:58:40.020Z,99843.75
2024-02-24T10:01:06.927Z,99840.34
2024-02-24T10:03:34.500Z,99829.66
2024-02-24T10:06:01.238Z,99840.38
2024-02-24T10:08:28.633Z,99840.72
2024-02-24T10:10:56.244Z,99840.56
2024-02-24T10:13:23.065Z,99845.41
2024-02-24T10:15:49.957Z,99846.78
2024-02-24T10:18:19.647Z,99845.66
2024-02-24T10:20:46.622Z,99850.47
2024-02-24T10:23:14.164Z,99855.00
2024-02-24T10:25:42.896Z,99850.84
2024-02-24T10:28:09.590Z,99851.88
2024-02-24T10:30:36.285Z,99857.53
2024-02-24T10:33:04.829Z,99860.19
2024-02-24T10:35:33.397Z,99861.81
2024-02-24T10:38:17.874Z,99863.44
2024-02-24T10:40:52.006Z,99868.41
2024-02-24T10:43:21.648Z,99865.75
2024-02-24T10:45:48.317Z,99864.28
2024-02-24T10:48:15.111Z,99865.31
2024-02-24T10:50:45.194Z,99871.00
2024-02-24T10:53:15.608Z,99868.38
2024-02-24T10:55:44.074Z,99862.72
2024-02-24T10:58:11.308Z,99871.34
2024-02-24T11:00:46.254Z,99858.69
2024-02-24T11:03:15.021Z,99865.50
2024-02-24T11:05:47.137Z,99860.84
2024-02-24T11:08:49.947Z,99864.84
2024-02-24T11:11:16.952Z,99864.06
2024-02-24T11:13:55.938Z,99871.22
2024-02-24T11:16:34.905Z,99862.38
2024-02-24T11:19:02.822Z,99868.69
2024-02-24T11:22:04.566Z,99868.34
2024-02-24T11:24:34.427Z,99871.19
2024-02-24T11:27:02.407Z,99861.88
2024-02-24T11:29:50.649Z,99866.44
2024-02-24T11:32:18.129Z,99864.81
2024-02-24T11:34:46.667Z,99865.47
2024-02-24T11:37:18.812Z,99873.50
2024-02-24T11:39:48.081Z,99869.03
2024-02-24T11:42:15.546Z,99868.34
2024-02-24T11:44:56.169Z,99876.50
2024-02-24T11:47:22.863Z,99877.16
2024-02-24T11:49:52.262Z,99871.53
2024-02-24T11:52:19.491Z,99870.03
2024-02-24T11:54:46.943Z,99871.38
2024-02-24T11:57:14.657Z,99869.38
2024-02-24T11:59:42.308Z,99865.97
2024-02-24T12:02:09.013Z,99870.13
2024-02-24T12:04:36.753Z,99867.44
2024-02-24T12:07:05.735Z,99858.25
2024-02-24T12:09:33.023Z,99865.25
2024-02-24T12:12:00.785Z,99860.06
2024-02-24T12:14:31.526Z,99858.91
2024-02-24T12:16:59.587Z,99858.75
2024-02-24T12:19:29.924Z,99865.94
2024-02-24T12:21:56.616Z,99858.97
2024-02-24T12:24:30.132Z,99860.53
2024-02-24T12:27:02.121Z,99853.22
2024-02-24T12:29:30.977Z,99858.38
2024-02-24T12:31:58.042Z,99855.88
2024-02-24T12:34:26.118Z,99864.34
2024-02-24T12:36:57.342Z,99871.13
2024-02-24T12:39:25.525Z,99906.94
2024-02-24T12:41:55.426Z,99912.41
2024-02-24T12:44:24.723Z,99918.06
2024-02-24T12:46:51.422Z,99922.44
2024-02-24T12:49:18.084Z,99913.69
2024-02-24T12:51:54.073Z,99908.25
2024-02-24T12:54:20.994Z,99922.72
2024-02-24T12:56:47.608Z,99928.13
2024-02-24T12:59:20.154Z,99936.19
2024-02-24T13:01:47.039Z,99928.22
2024-02-24T13:04:14.029Z,99925.38
2024-02-24T13:06:41.367Z,99924.59
2024-02-24T13:09:11.081Z,99930.50
2024-02-24T13:11:38.278Z,99937.97
2024-02-24T13:14:04.925Z,99935.31
2024-02-24T13:16:31.577Z,99937.75
2024-02-24T13:18:58.676Z,99944.78
2024-02-24T13:21:25.789Z,99936.59
2024-02-24T13:23:54.479Z,99941.06
2024-02-24T13:26:21.429Z,99945.09
2024-02-24T13:28:48.306Z,99934.19
2024-02-24T13:31:15.456Z,99944.59
2024-02-24T13:33:42.242Z,99941.72
2024-02-24T13:36:09.022Z,99944.25
2024-02-24T13:38:35.711Z,99944.84
2024-02-24T13:41:02.339Z,99944.13
2024-02-24T13:43:28.968Z,99947.63
2024-02-24T13:45:55.611Z,99950.41
2024-02-24T13:48:22.500Z,99943.34
2024-02-24T13:50:49.140Z,99944.97
2024-02-24T13:53:15.840Z,99948.59
2024-02-24T13:55:42.482Z,99959.78
2024-02-24T13:58:09.061Z,99956.03
2024-02-24T14:00:35.685Z,99956.34
2024-02-24T14:03:03.844Z,99955.66
2024-02-24T14:05:30.696Z,99956.81
2024-02-24T14:07:58.598Z,99952.34
2024-02-24T14:10:25.217Z,99958.88
2024-02-24T14:12:51.814Z,99959.22
2024-02-24T14:15:20.692Z,99959.34
2024-02-24T14:17:47.413Z,99965.72
2024-02-24T14:20:20.225Z,99958.38
2024-02-24T14:22:52.170Z,99959.25
2024-02-24T14:25:19.899Z,99962.97
2024-02-24T14:27:46.464Z,99971.31
2024-02-24T14:30:14.408Z,99975.34
2024-02-24T14:32:41.025Z,99972.28
2024-02-24T14:35:15.214Z,99966.63
2024-02-24T14:37:41.896Z,99977.69
2024-02-24T14:40:09.368Z,99988.09
2024-02-24T14:42:35.978Z,99983.69
2024-02-24T14:45:03.038Z,99996.03
2024-02-24T14:47:30.978Z,99993.81
2024-02-24T14:49:58.198Z,99994.25
2024-02-24T14:52:25.806Z,99992.88
2024-02-24T14:54:53.292Z,99995.28
2024-02-24T14:57:20.239Z,100001.63
2024-02-24T14:59:47.012Z,100000.56
2024-02-24T15:02:22.395Z,99998.78
2024-02-24T15:04:57.078Z,100005.38
2024-02-24T15:07:23.724Z,99999.41
2024-02-24T15:09:50.696Z,100008.31
2024-02-24T15:12:17.392Z,100008.06
2024-02-24T15:14:44.197Z,100010.16
2024-02-24T15:17:12.228Z,100013.81
2024-02-24T15:19:41.899Z,100014.13
2024-02-24T15:22:08.943Z,100015.94
2024-02-24T15:24:35.784Z,100018.56
2024-02-24T15:27:03.100Z,100017.88
2024-02-24T15:29:30.561Z,100018.69
2024-02-24T15:31:57.540Z,100016.06
2024-02-24T15:34:26.413Z,100024.84
2024-02-24T15:36:53.493Z,100020.66
2024-02-24T15:39:20.656Z,100020.81
2024-02-24T15:41:48.712Z,100026.09
2024-02-24T15:44:15.611Z,100030.59
2024-02-24T15:46:47.702Z,100027.94
2024-02-24T15:49:14.814Z,100039.81
2024-02-24T15:51:41.685Z,100036.88
2024-02-24T15:54:08.475Z,100035.53
2024-02-24T15:56:35.325Z,100040.56
2024-02-24T15:59:02.347Z,100040.97
2024-02-24T16:01:29.607Z,100042.09
2024-02-24T16:03:56.555Z,100042.53
2024-02-24T16:08:59.694Z,100054.66
2024-02-24T16:11:26.478Z,100053.41
2024-02-24T16:13:53.133Z,100058.16
2024-02-24T16:16:22.662Z,100060.97
2024-02-24T16:18:49.398Z,100070.00
2024-02-24T16:21:16.212Z,100073.91
2024-02-24T16:23:43.047Z,100078.66
2024-02-24T16:26:09.770Z,100073.63
2024-02-24T16:28:36.387Z,100077.69
2024-02-24T16:31:04.018Z,100087.69
2024-02-24T16:33:31.163Z,100081.84
2024-02-24T16:35:58.048Z,100098.16
2024-02-24T16:38:24.880Z,100090.88
2024-02-24T16:40:51.594Z,100098.28
2024-02-24T16:43:18.211Z,100103.13
2024-02-24T16:45:44.933Z,100107.84
2024-02-24T16:48:16.294Z,100111.75
2024-02-24T16:50:43.433Z,100107.44
2024-02-24T16:53:10.243Z,100098.81
2024-02-24T16:55:36.836Z,100106.88
2024-02-24T16:58:03.643Z,100103.41
2024-02-24T17:00:30.451Z,100106.44
2024-02-24T17:02:57.439Z,100111.16
2024-02-24T17:05:24.296Z,100109.63
2024-02-24T17:07:51.018Z,100121.44
2024-02-24T17:10:17.752Z,100123.41
2024-02-24T17:12:44.658Z,100124.63
2024-02-24T17:15:12.130Z,100133.81
2024-02-24T17:17:38.894Z,100134.19
2024-02-24T17:20:06.815Z,100132.94
2024-02-24T17:22:34.124Z,100136.84
2024-02-24T17:25:00.834Z,100140.69
2024-02-24T17:27:27.531Z,100141.81
2024-02-24T17:29:54.276Z,100147.47
2024-02-24T17:32:21.015Z,100147.88
2024-02-24T17:34:47.778Z,100147.19
2024-02-24T17:37:14.457Z,100143.69
2024-02-24T17:39:44.269Z,100154.13
2024-02-24T17:42:12.378Z,100158.44
2024-02-24T17:44:39.167Z,100161.78
2024-02-24T17:47:06.004Z,100167.81
2024-02-24T17:49:33.817Z,100168.50
2024-02-24T17:52:00.708Z,100171.00
2024-02-24T17:54:28.853Z,100169.88
2024-02-24T17:56:57.483Z,100178.41
2024-02-24T17:59:24.292Z,100179.13
2024-02-24T18:01:50.963Z,100175.22
2024-02-24T18:04:19.759Z,100170.53
2024-02-24T18:06:46.759Z,100172.91
2024-02-24T18:09:13.674Z,100166.66
2024-02-24T18:11:40.404Z,100172.78
2024-02-24T18:14:07.066Z,100173.03
2024-02-24T18:16:33.982Z,100168.84
2024-02-24T18:19:01.071Z,100169.25
2024-02-24T18:21:27.901Z,100174.22
2024-02-24T18:23:54.667Z,100185.31
2024-02-24T18:26:21.670Z,100178.91
2024-02-24T18:28:48.287Z,100177.84
2024-02-24T18:31:14.978Z,100172.38
2024-02-24T18:33:41.950Z,100180.81
2024-02-24T18:36:08.802Z,100180.75
2024-02-24T18:38:35.560Z,100189.19
2024-02-24T18:41:02.667Z,100186.34
2024-02-24T18:43:29.264Z,100184.22
2024-02-24T18:45:56.830Z,100184.63
2024-02-24T18:48:23.617Z,100192.91
2024-02-24T18:50:50.393Z,100183.84
2024-02-24T18:53:17.122Z,100182.41
2024-02-24T18:55:43.897Z,100186.25
2024-02-24T18:58:10.598Z,100187.47
2024-02-24T19:00:37.311Z,100198.53
2024-02-24T19:03:04.903Z,100191.81
2024-02-24T19:05:32.284Z,100190.41
2024-02-24T19:07:59.070Z,100194.97
2024-02-24T19:10:25.848Z,100202.16
2024-02-24T19:12:53.024Z,100201.56
2024-02-24T19:15:20.027Z,100202.66
2024-02-24T19:17:46.993Z,100200.97
2024-02-24T19:20:14.246Z,100198.22
2024-02-24T19:22:41.048Z,100196.44
2024-02-24T19:25:08.671Z,100207.94
2024-02-24T19:27:35.381Z,100205.41
2024-02-24T19:30:04.685Z,100215.16
2024-02-24T19:32:31.743Z,100212.50
2024-02-24T19:34:58.676Z,100209.63
2024-02-24T19:37:25.417Z,100207.44
2024-02-24T19:39:55.129Z,100211.78
2024-02-24T19:42:22.090Z,100206.50
2024-02-24T19:44:48.828Z,100214.53
2024-02-24T19:47:15.598Z,100212.59
2024-02-24T19:49:42.386Z,100209.94
2024-02-24T19:52:09.139Z,100209.84
2024-02-24T19:54:36.219Z,100212.34
2024-02-24T19:57:03.161Z,100215.72
2024-02-24T19:59:30.175Z,100216.53
2024-02-24T20:02:00.619Z,100216.81
2024-02-24T20:04:27.828Z,100214.72
2024-02-24T20:06:54.690Z,100211.47
2024-02-24T20:09:23.451Z,100218.66
2024-02-24T20:11:50.181Z,100213.69
2024-02-24T20:14:19.557Z,100221.84
2024-02-24T20:16:46.560Z,100210.78
2024-02-24T20:19:13.500Z,100212.75
2024-02-24T20:21:42.507Z,100217.53
2024-02-24T20:24:09.761Z,100213.09
2024-02-24T20:26:36.396Z,100223.25
2024-02-24T20:29:06.015Z,100227.47
2024-02-24T20:31:36.699Z,100226.50
2024-02-24T20:34:08.100Z,100229.88
2024-02-24T20:36:35.858Z,100233.22
2024-02-24T20:39:02.819Z,100236.81
2024-02-24T20:41:30.486Z,100234.56
2024-02-24T20:43:59.132Z,100234.09
2024-02-24T20:46:25.852Z,100233.63
2024-02-24T20:48:52.769Z,100233.03
2024-02-24T20:51:19.483Z,100236.09
2024-02-24T20:53:46.722Z,100228.66
2024-02-24T20:56:13.549Z,100229.50
2024-02-24T20:58:40.270Z,100233.00
2024-02-24T21:01:07.231Z,100234.66
2024-02-24T21:03:34.539Z,100239.94
2024-02-24T21:06:01.645Z,100236.44
2024-02-24T21:08:28.597Z,100239.09
2024-02-24T21:10:55.829Z,100238.03
2024-02-24T21:13:22.588Z,100234.28
2024-02-24T21:15:49.257Z,100232.34
2024-02-24T21:18:16.108Z,100232.94
2024-02-24T21:20:43.089Z,100231.00
2024-02-24T21:23:09.805Z,100233.28
2024-02-24T21:25:36.457Z,100228.44
2024-02-24T21:28:07.655Z,100230.81
2024-02-24T21:30:34.971Z,100232.81
2024-02-24T21:33:01.863Z,100235.78
2024-02-24T21:35:33.467Z,100232.88
2024-02-24T21:38:01.123Z,100225.56
2024-02-24T21:40:27.863Z,100228.03
2024-02-24T21:42:54.716Z,100227.09
2024-02-24T21:45:21.493Z,100225.88
2024-02-24T21:47:48.278Z,100229.91
2024-02-24T21:50:15.083Z,100230.91
2024-02-24T21:52:41.913Z,100226.56
2024-02-24T21:55:09.103Z,100229.22
2024-02-24T21:57:35.820Z,100228.13
2024-02-24T22:00:02.808Z,100227.28
2024-02-24T22:02:30.148Z,100226.31
2024-02-24T22:04:56.954Z,100231.59
2024-02-24T22:07:25.448Z,100229.66
2024-02-24T22:09:52.153Z,100231.09
2024-02-24T22:12:18.847Z,100232.78
2024-02-24T22:14:45.677Z,100234.56
2024-02-24T22:17:12.628Z,100231.66
2024-02-24T22:19:39.394Z,100236.69
2024-02-24T22:22:06.303Z,100236.44
2024-02-24T22:24:36.778Z,100233.53
2024-02-24T22:27:03.735Z,100229.91
2024-02-24T22:29:30.608Z,100234.38
2024-02-24T22:31:57.423Z,100234.22
2024-02-24T22:34:24.201Z,100239.78
2024-02-24T22:36:52.872Z,100236.44
2024-02-24T22:39:19.672Z,100231.16
2024-02-24T22:41:47.819Z,100238.34
2024-02-24T22:44:14.984Z,100231.41
2024-02-24T22:46:42.067Z,100227.09
2024-02-24T22:49:08.844Z,100227.22
2024-02-24T22:51:35.947Z,100227.34
2024-02-24T22:54:02.893Z,100226.63
2024-02-24T22:56:31.063Z,100229.41
2024-02-24T22:59:01.713Z,100229.53
2024-02-24T23:01:29.129Z,100237.59
2024-02-24T23:03:58.415Z,100235.94
2024-02-24T23:06:25.210Z,100241.22
2024-02-24T23:08:52.105Z,100232.69
2024-02-24T23:11:29.207Z,100228.53
2024-02-24T23:14:00.480Z,100232.81
2024-02-24T23:16:29.074Z,100236.44
2024-02-24T23:18:58.976Z,100239.09
2024-02-24T23:21:30.086Z,100233.66
2024-02-24T23:23:57.999Z,100227.53
2024-02-24T23:26:24.849Z,100219.75
2024-02-24T23:28:51.676Z,100217.22
2024-02-24T23:31:18.599Z,100210.41
2024-02-24T23:33:45.698Z,100218.47
2024-02-24T23:36:12.812Z,100215.09
2024-02-24T23:38:40.072Z,100221.22
2024-02-24T23:41:06.793Z,100216.09
2024-02-24T23:43:38.617Z,100216.94
2024-02-24T23:46:11.696Z,100219.56
2024-02-24T23:48:43.374Z,100213.44
2024-02-24T23:51:10.408Z,100210.78
2024-02-24T23:53:38.803Z,100199.50
2024-02-24T23:56:05.749Z,100204.94
2024-02-24T23:58:33.676Z,100203.13
